sensor_id;sensor_type;location;lat;lon;timestamp;pressure;altitude;pressure_sealevel;temperature;humidity
45275;BME280;31019;43.780;25.948;2023-04-30T00:00:15;100890.38;;;4.89;100.00
45275;BME280;31019;43.780;25.948;2023-04-30T00:02:51;100876.38;;;4.64;100.00
45275;BME280;31019;43.780;25.948;2023-04-30T00:05:35;100884.75;;;4.83;100.00
45275;BME280;31019;43.780;25.948;2023-04-30T00:08:20;100871.63;;;4.67;100.00
45275;BME280;31019;43.780;25.948;2023-04-30T00:10:59;100883.81;;;4.85;100.00
45275;BME280;31019;43.780;25.948;2023-04-30T00:13:38;100873.41;;;4.75;100.00
45275;BME280;31019;43.780;25.948;2023-04-30T00:19:19;100876.03;;;4.75;100.00
45275;BME280;31019;43.780;25.948;2023-04-30T00:22:16;100873.25;;;4.76;100.00
45275;BME280;31019;43.780;25.948;2023-04-30T00:25:00;100880.66;;;4.73;100.00
45275;BME280;31019;43.780;25.948;2023-04-30T00:27:52;100873.41;;;4.75;100.00
45275;BME280;31019;43.780;25.948;2023-04-30T00:30:55;100867.97;;;4.68;100.00
45275;BME280;31019;43.780;25.948;2023-04-30T00:34:06;100859.59;;;4.65;100.00
45275;BME280;31019;43.780;25.948;2023-04-30T00:36:52;100864.34;;;4.45;100.00
45275;BME280;31019;43.780;25.948;2023-04-30T00:39:53;100876.34;;;4.47;100.00
45275;BME280;31019;43.780;25.948;2023-04-30T00:42:42;100855.31;;;4.39;100.00
45275;BME280;31019;43.780;25.948;2023-04-30T00:45:58;100868.41;;;4.23;100.00
45275;BME280;31019;43.780;25.948;2023-04-30T00:48:51;100870.41;;;4.37;100.00
45275;BME280;31019;43.780;25.948;2023-04-30T00:54:48;100867.94;;;4.27;100.00
45275;BME280;31019;43.780;25.948;2023-04-30T01:01:09;100860.88;;;3.77;100.00
45275;BME280;31019;43.780;25.948;2023-04-30T01:03:56;100861.97;;;4.09;100.00
45275;BME280;31019;43.780;25.948;2023-04-30T01:15:58;100872.81;;;4.06;100.00
45275;BME280;31019;43.780;25.948;2023-04-30T01:19:24;100858.97;;;3.87;100.00
45275;BME280;31019;43.780;25.948;2023-04-30T01:22:34;100855.25;;;3.64;100.00
45275;BME280;31019;43.780;25.948;2023-04-30T01:28:54;100856.97;;;3.89;100.00
45275;BME280;31019;43.780;25.948;2023-04-30T01:32:02;100859.63;;;3.98;100.00
45275;BME280;31019;43.780;25.948;2023-04-30T01:34:59;100854.03;;;3.93;100.00
45275;BME280;31019;43.780;25.948;2023-04-30T01:38:07;100849.03;;;3.73;100.00
45275;BME280;31019;43.780;25.948;2023-04-30T01:41:27;100843.69;;;3.99;100.00
45275;BME280;31019;43.780;25.948;2023-04-30T01:50:37;100842.78;;;3.74;100.00
45275;BME280;31019;43.780;25.948;2023-04-30T01:53:40;100838.28;;;4.01;100.00
45275;BME280;31019;43.780;25.948;2023-04-30T01:56:36;100848.97;;;4.07;100.00
45275;BME280;31019;43.780;25.948;2023-04-30T01:59:52;100844.53;;;4.00;100.00
45275;BME280;31019;43.780;25.948;2023-04-30T02:02:34;100842.41;;;4.03;100.00
45275;BME280;31019;43.780;25.948;2023-04-30T02:05:42;100848.13;;;3.90;100.00
45275;BME280;31019;43.780;25.948;2023-04-30T02:08:32;100853.66;;;4.30;100.00
45275;BME280;31019;43.780;25.948;2023-04-30T02:14:46;100854.25;;;4.07;100.00
45275;BME280;31019;43.780;25.948;2023-04-30T02:18:03;100841.16;;;4.24;100.00
45275;BME280;31019;43.780;25.948;2023-04-30T02:21:01;100838.69;;;4.39;100.00
45275;BME280;31019;43.780;25.948;2023-04-30T02:24:04;100840.81;;;4.27;100.00
45275;BME280;31019;43.780;25.948;2023-04-30T02:30:16;100848.25;;;4.40;100.00
45275;BME280;31019;43.780;25.948;2023-04-30T02:35:54;100841.94;;;4.16;100.00
45275;BME280;31019;43.780;25.948;2023-04-30T02:38:37;100840.31;;;4.23;100.00
45275;BME280;31019;43.780;25.948;2023-04-30T02:41:21;100840.78;;;4.10;100.00
45275;BME280;31019;43.780;25.948;2023-04-30T02:44:03;100865.72;;;3.98;100.00
45275;BME280;31019;43.780;25.948;2023-04-30T02:46:44;100856.38;;;4.04;100.00
45275;BME280;31019;43.780;25.948;2023-04-30T02:49:11;100858.16;;;3.95;100.00
45275;BME280;31019;43.780;25.948;2023-04-30T02:51:39;100854.72;;;4.11;100.00
45275;BME280;31019;43.780;25.948;2023-04-30T02:54:06;100852.31;;;4.18;100.00
45275;BME280;31019;43.780;25.948;2023-04-30T02:56:33;100856.19;;;4.05;100.00
45275;BME280;31019;43.780;25.948;2023-04-30T02:59:00;100860.72;;;3.79;100.00
45275;BME280;31019;43.780;25.948;2023-04-30T03:01:27;100864.28;;;3.70;100.00
45275;BME280;31019;43.780;25.948;2023-04-30T03:03:54;100865.56;;;3.57;100.00
45275;BME280;31019;43.780;25.948;2023-04-30T03:06:20;100864.28;;;3.70;100.00
45275;BME280;31019;43.780;25.948;2023-04-30T03:08:48;100868.34;;;3.98;100.00
45275;BME280;31019;43.780;25.948;2023-04-30T03:11:15;100862.75;;;4.01;100.00
45275;BME280;31019;43.780;25.948;2023-04-30T03:13:42;100866.28;;;3.76;100.00
45275;BME280;31019;43.780;25.948;2023-04-30T03:16:09;100872.50;;;4.09;100.00
45275;BME280;31019;43.780;25.948;2023-04-30T03:18:36;100863.56;;;3.94;100.00
45275;BME280;31019;43.780;25.948;2023-04-30T03:21:03;100874.44;;;3.64;100.00
45275;BME280;31019;43.780;25.948;2023-04-30T03:23:30;100870.72;;;3.75;100.00
45275;BME280;31019;43.780;25.948;2023-04-30T03:25:58;100867.91;;;3.16;100.00
45275;BME280;31019;43.780;25.948;2023-04-30T03:28:25;100874.91;;;3.60;100.00
45275;BME280;31019;43.780;25.948;2023-04-30T03:30:52;100883.69;;;3.77;100.00
45275;BME280;31019;43.780;25.948;2023-04-30T03:33:19;100885.22;;;3.87;100.00
45275;BME280;31019;43.780;25.948;2023-04-30T03:35:45;100883.16;;;4.07;100.00
45275;BME280;31019;43.780;25.948;2023-04-30T03:38:14;100886.34;;;4.27;100.00
45275;BME280;31019;43.780;25.948;2023-04-30T03:40:41;100886.81;;;4.23;100.00
45275;BME280;31019;43.780;25.948;2023-04-30T03:43:09;100892.31;;;4.46;100.00
45275;BME280;31019;43.780;25.948;2023-04-30T03:45:36;100900.38;;;4.61;100.00
45275;BME280;31019;43.780;25.948;2023-04-30T03:48:03;100896.44;;;4.65;100.00
45275;BME280;31019;43.780;25.948;2023-04-30T03:50:29;100887.56;;;4.82;100.00
45275;BME280;31019;43.780;25.948;2023-04-30T03:52:56;100883.63;;;4.70;100.00
45275;BME280;31019;43.780;25.948;2023-04-30T03:55:35;100879.19;;;4.95;100.00
45275;BME280;31019;43.780;25.948;2023-04-30T03:58:57;100896.63;;;5.12;100.00
45275;BME280;31019;43.780;25.948;2023-04-30T04:01:40;100901.72;;;5.05;100.00
45275;BME280;31019;43.780;25.948;2023-04-30T04:04:35;100885.59;;;5.09;100.00
45275;BME280;31019;43.780;25.948;2023-04-30T04:07:28;100902.19;;;5.17;100.00
45275;BME280;31019;43.780;25.948;2023-04-30T04:10:10;100910.59;;;5.21;100.00
45275;BME280;31019;43.780;25.948;2023-04-30T04:16:07;100890.19;;;5.31;100.00
45275;BME280;31019;43.780;25.948;2023-04-30T04:19:05;100893.81;;;4.81;100.00
45275;BME280;31019;43.780;25.948;2023-04-30T04:21:36;100877.22;;;4.97;100.00
45275;BME280;31019;43.780;25.948;2023-04-30T04:24:38;100901.88;;;5.28;100.00
45275;BME280;31019;43.780;25.948;2023-04-30T04:27:34;100889.91;;;4.93;100.00
45275;BME280;31019;43.780;25.948;2023-04-30T04:30:59;100896.59;;;5.37;100.00
45275;BME280;31019;43.780;25.948;2023-04-30T04:34:01;100888.06;;;5.26;100.00
45275;BME280;31019;43.780;25.948;2023-04-30T04:36:57;100889.50;;;5.29;100.00
45275;BME280;31019;43.780;25.948;2023-04-30T04:41:13;100895.28;;;5.08;100.00
45275;BME280;31019;43.780;25.948;2023-04-30T04:46:13;100897.69;;;5.67;100.00
45275;BME280;31019;43.780;25.948;2023-04-30T04:49:03;100889.06;;;5.81;100.00
45275;BME280;31019;43.780;25.948;2023-04-30T04:52:03;100886.56;;;5.88;100.00
45275;BME280;31019;43.780;25.948;2023-04-30T04:58:18;100895.44;;;6.34;100.00
45275;BME280;31019;43.780;25.948;2023-04-30T05:01:03;100893.06;;;6.48;100.00
45275;BME280;31019;43.780;25.948;2023-04-30T05:17:08;100886.66;;;7.26;100.00
45275;BME280;31019;43.780;25.948;2023-04-30T05:20:18;100893.34;;;7.81;100.00
45275;BME280;31019;43.780;25.948;2023-04-30T05:23:23;100893.41;;;8.02;100.00
45275;BME280;31019;43.780;25.948;2023-04-30T05:26:07;100886.78;;;8.28;100.00
45275;BME280;31019;43.780;25.948;2023-04-30T05:29:33;100877.00;;;8.86;100.00
45275;BME280;31019;43.780;25.948;2023-04-30T05:32:26;100889.88;;;8.89;100.00
45275;BME280;31019;43.780;25.948;2023-04-30T05:35:26;100894.91;;;9.06;100.00
45275;BME280;31019;43.780;25.948;2023-04-30T05:38:28;100894.09;;;9.33;100.00
45275;BME280;31019;43.780;25.948;2023-04-30T05:41:21;100888.69;;;9.48;100.00
45275;BME280;31019;43.780;25.948;2023-04-30T05:47:44;100891.00;;;9.93;100.00
45275;BME280;31019;43.780;25.948;2023-04-30T05:50:49;100889.09;;;10.28;100.00
45275;BME280;31019;43.780;25.948;2023-04-30T06:00:28;100886.97;;;10.91;100.00
45275;BME280;31019;43.780;25.948;2023-04-30T06:03:44;100891.25;;;11.32;100.00
45275;BME280;31019;43.780;25.948;2023-04-30T06:06:57;100890.78;;;11.55;100.00
45275;BME280;31019;43.780;25.948;2023-04-30T06:09:52;100886.66;;;11.93;100.00
45275;BME280;31019;43.780;25.948;2023-04-30T06:13:02;100886.94;;;12.16;100.00
45275;BME280;31019;43.780;25.948;2023-04-30T06:15:41;100882.47;;;12.48;100.00
45275;BME280;31019;43.780;25.948;2023-04-30T06:28:05;100875.75;;;13.83;100.00
45275;BME280;31019;43.780;25.948;2023-04-30T06:31:07;100882.16;;;13.82;100.00
45275;BME280;31019;43.780;25.948;2023-04-30T06:36:01;100888.69;;;13.86;100.00
45275;BME280;31019;43.780;25.948;2023-04-30T06:37:15;100875.31;;;13.67;100.00
45275;BME280;31019;43.780;25.948;2023-04-30T06:47:09;100879.44;;;14.79;100.00
45275;BME280;31019;43.780;25.948;2023-04-30T06:50:01;100890.03;;;14.97;100.00
45275;BME280;31019;43.780;25.948;2023-04-30T06:53:10;100881.09;;;14.80;100.00
45275;BME280;31019;43.780;25.948;2023-04-30T06:55:58;100890.38;;;14.47;100.00
45275;BME280;31019;43.780;25.948;2023-04-30T07:05:18;100895.97;;;14.99;100.00
45275;BME280;31019;43.780;25.948;2023-04-30T07:08:28;100887.28;;;15.27;100.00
45275;BME280;31019;43.780;25.948;2023-04-30T07:11:15;100895.50;;;15.02;100.00
45275;BME280;31019;43.780;25.948;2023-04-30T07:14:21;100898.69;;;15.23;100.00
45275;BME280;31019;43.780;25.948;2023-04-30T07:24:38;100899.50;;;15.70;100.00
45275;BME280;31019;43.780;25.948;2023-04-30T07:26:38;100900.19;;;15.77;100.00
45275;BME280;31019;43.780;25.948;2023-04-30T07:29:38;100892.97;;;15.78;100.00
45275;BME280;31019;43.780;25.948;2023-04-30T07:32:26;100895.78;;;15.71;100.00
45275;BME280;31019;43.780;25.948;2023-04-30T07:35:20;100890.22;;;16.01;100.00
45275;BME280;31019;43.780;25.948;2023-04-30T07:48:07;100891.63;;;16.33;100.00
45275;BME280;31019;43.780;25.948;2023-04-30T07:54:42;100886.75;;;16.30;100.00
45275;BME280;31019;43.780;25.948;2023-04-30T07:57:26;100892.22;;;16.35;100.00
45275;BME280;31019;43.780;25.948;2023-04-30T08:03:20;100897.78;;;16.33;100.00
45275;BME280;31019;43.780;25.948;2023-04-30T08:06:12;100900.41;;;16.74;100.00
45275;BME280;31019;43.780;25.948;2023-04-30T08:09:14;100888.94;;;16.61;100.00
45275;BME280;31019;43.780;25.948;2023-04-30T08:12:13;100894.88;;;16.35;100.00
45275;BME280;31019;43.780;25.948;2023-04-30T08:15:50;100901.88;;;16.64;100.00
45275;BME280;31019;43.780;25.948;2023-04-30T08:22:38;100886.28;;;17.29;100.00
45275;BME280;31019;43.780;25.948;2023-04-30T08:25:31;100900.28;;;17.14;100.00
45275;BME280;31019;43.780;25.948;2023-04-30T08:28:14;100891.09;;;17.10;100.00
45275;BME280;31019;43.780;25.948;2023-04-30T08:31:34;100899.13;;;17.27;100.00
45275;BME280;31019;43.780;25.948;2023-04-30T08:34:32;100894.50;;;17.05;100.00
45275;BME280;31019;43.780;25.948;2023-04-30T08:40:51;100881.66;;;18.29;100.00
45275;BME280;31019;43.780;25.948;2023-04-30T08:47:26;100872.72;;;17.57;100.00
45275;BME280;31019;43.780;25.948;2023-04-30T08:53:17;100871.94;;;17.79;100.00
45275;BME280;31019;43.780;25.948;2023-04-30T08:56:01;100893.28;;;16.51;100.00
45275;BME280;31019;43.780;25.948;2023-04-30T08:59:16;100875.75;;;17.44;100.00
45275;BME280;31019;43.780;25.948;2023-04-30T09:02:20;100877.53;;;18.48;100.00
45275;BME280;31019;43.780;25.948;2023-04-30T09:05:27;100876.25;;;17.80;100.00
45275;BME280;31019;43.780;25.948;2023-04-30T09:08:43;100877.34;;;17.23;100.00
45275;BME280;31019;43.780;25.948;2023-04-30T09:11:29;100875.06;;;17.93;100.00
45275;BME280;31019;43.780;25.948;2023-04-30T09:17:27;100868.34;;;18.17;100.00
45275;BME280;31019;43.780;25.948;2023-04-30T09:20:15;100857.16;;;18.58;100.00
45275;BME280;31019;43.780;25.948;2023-04-30T09:23:11;100859.34;;;18.61;100.00
45275;BME280;31019;43.780;25.948;2023-04-30T09:26:21;100853.38;;;18.53;100.00
45275;BME280;31019;43.780;25.948;2023-04-30T09:29:06;100844.34;;;17.67;100.00
45275;BME280;31019;43.780;25.948;2023-04-30T09:32:35;100841.06;;;17.21;100.00
45275;BME280;31019;43.780;25.948;2023-04-30T09:35:04;100840.19;;;17.98;100.00
45275;BME280;31019;43.780;25.948;2023-04-30T09:37:55;100823.03;;;18.58;100.00
45275;BME280;31019;43.780;25.948;2023-04-30T09:40:39;100828.28;;;19.07;89.01
45275;BME280;31019;43.780;25.948;2023-04-30T09:43:53;100828.88;;;18.77;94.61
45275;BME280;31019;43.780;25.948;2023-04-30T09:46:58;100834.44;;;18.70;94.41
45275;BME280;31019;43.780;25.948;2023-04-30T09:50:12;100839.78;;;18.11;100.00
45275;BME280;31019;43.780;25.948;2023-04-30T09:53:28;100826.94;;;17.69;100.00
45275;BME280;31019;43.780;25.948;2023-04-30T10:03:23;100828.22;;;17.83;97.81
45275;BME280;31019;43.780;25.948;2023-04-30T10:09:30;100826.91;;;18.40;100.00
45275;BME280;31019;43.780;25.948;2023-04-30T10:13:14;100816.81;;;18.52;100.00
45275;BME280;31019;43.780;25.948;2023-04-30T10:25:21;100805.88;;;19.54;83.04
45275;BME280;31019;43.780;25.948;2023-04-30T10:28:07;100809.34;;;19.44;94.45
45275;BME280;31019;43.780;25.948;2023-04-30T10:34:12;100805.81;;;19.39;97.59
45275;BME280;31019;43.780;25.948;2023-04-30T10:37:06;100819.38;;;18.37;100.00
45275;BME280;31019;43.780;25.948;2023-04-30T10:40:30;100791.28;;;20.28;97.43
45275;BME280;31019;43.780;25.948;2023-04-30T10:43:38;100788.47;;;21.20;99.12
45275;BME280;31019;43.780;25.948;2023-04-30T10:46:48;100786.22;;;19.54;100.00
45275;BME280;31019;43.780;25.948;2023-04-30T10:49:40;100791.44;;;19.76;89.98
45275;BME280;31019;43.780;25.948;2023-04-30T10:55:24;100799.66;;;20.37;75.63
45275;BME280;31019;43.780;25.948;2023-04-30T11:05:26;100799.03;;;19.99;67.46
45275;BME280;31019;43.780;25.948;2023-04-30T11:08:31;100792.03;;;19.88;60.11
45275;BME280;31019;43.780;25.948;2023-04-30T11:11:32;100785.03;;;19.29;72.21
45275;BME280;31019;43.780;25.948;2023-04-30T11:17:46;100799.66;;;20.73;70.88
45275;BME280;31019;43.780;25.948;2023-04-30T11:21:02;100798.88;;;20.67;59.89
45275;BME280;31019;43.780;25.948;2023-04-30T11:24:11;100790.91;;;19.16;57.61
45275;BME280;31019;43.780;25.948;2023-04-30T11:27:14;100781.81;;;20.21;62.67
45275;BME280;31019;43.780;25.948;2023-04-30T11:30:33;100792.06;;;18.23;79.31
45275;BME280;31019;43.780;25.948;2023-04-30T11:40:12;100775.94;;;19.40;68.79
45275;BME280;31019;43.780;25.948;2023-04-30T11:43:13;100771.53;;;19.82;68.23
45275;BME280;31019;43.780;25.948;2023-04-30T11:46:12;100769.91;;;19.96;74.85
45275;BME280;31019;43.780;25.948;2023-04-30T11:49:19;100763.53;;;20.64;56.92
45275;BME280;31019;43.780;25.948;2023-04-30T11:52:23;100765.63;;;21.72;54.50
45275;BME280;31019;43.780;25.948;2023-04-30T11:58:49;100760.53;;;20.70;59.01
45275;BME280;31019;43.780;25.948;2023-04-30T12:01:57;100763.59;;;22.91;59.05
45275;BME280;31019;43.780;25.948;2023-04-30T12:08:14;100737.47;;;23.48;49.58
45275;BME280;31019;43.780;25.948;2023-04-30T12:14:25;100737.59;;;21.98;60.87
45275;BME280;31019;43.780;25.948;2023-04-30T12:17:03;100740.28;;;22.66;54.16
45275;BME280;31019;43.780;25.948;2023-04-30T12:19:30;100745.50;;;21.34;50.93
45275;BME280;31019;43.780;25.948;2023-04-30T12:21:58;100741.13;;;20.53;53.16
45275;BME280;31019;43.780;25.948;2023-04-30T12:24:26;100738.91;;;20.86;50.38
45275;BME280;31019;43.780;25.948;2023-04-30T12:26:52;100748.09;;;20.18;59.10
45275;BME280;31019;43.780;25.948;2023-04-30T12:29:21;100746.50;;;20.63;58.67
45275;BME280;31019;43.780;25.948;2023-04-30T12:31:50;100729.72;;;21.57;55.94
45275;BME280;31019;43.780;25.948;2023-04-30T12:34:17;100716.03;;;22.56;50.66
45275;BME280;31019;43.780;25.948;2023-04-30T12:36:44;100722.16;;;21.64;68.96
45275;BME280;31019;43.780;25.948;2023-04-30T12:39:13;100719.72;;;21.57;67.61
45275;BME280;31019;43.780;25.948;2023-04-30T12:41:41;100713.03;;;22.28;63.52
45275;BME280;31019;43.780;25.948;2023-04-30T12:44:16;100709.22;;;21.95;65.93
45275;BME280;31019;43.780;25.948;2023-04-30T12:46:43;100714.13;;;23.09;62.85
45275;BME280;31019;43.780;25.948;2023-04-30T12:49:20;100708.84;;;22.12;79.53
45275;BME280;31019;43.780;25.948;2023-04-30T12:51:48;100708.31;;;22.92;52.18
45275;BME280;31019;43.780;25.948;2023-04-30T12:54:23;100702.50;;;22.80;61.27
45275;BME280;31019;43.780;25.948;2023-04-30T12:57:02;100719.47;;;20.78;63.45
45275;BME280;31019;43.780;25.948;2023-04-30T12:59:30;100713.03;;;19.87;86.53
45275;BME280;31019;43.780;25.948;2023-04-30T13:02:07;100705.56;;;21.26;71.95
45275;BME280;31019;43.780;25.948;2023-04-30T13:04:36;100703.41;;;22.46;60.56
45275;BME280;31019;43.780;25.948;2023-04-30T13:07:03;100693.69;;;21.22;67.11
45275;BME280;31019;43.780;25.948;2023-04-30T13:09:31;100698.78;;;21.34;86.26
45275;BME280;31019;43.780;25.948;2023-04-30T13:11:58;100706.84;;;19.77;84.38
45275;BME280;31019;43.780;25.948;2023-04-30T13:14:25;100696.88;;;19.87;88.66
45275;BME280;31019;43.780;25.948;2023-04-30T13:16:52;100684.19;;;22.13;69.60
45275;BME280;31019;43.780;25.948;2023-04-30T13:19:19;100679.16;;;22.02;67.06
45275;BME280;31019;43.780;25.948;2023-04-30T13:21:48;100685.69;;;21.56;74.55
45275;BME280;31019;43.780;25.948;2023-04-30T13:24:15;100670.50;;;23.49;61.31
45275;BME280;31019;43.780;25.948;2023-04-30T13:26:43;100672.19;;;21.56;74.78
45275;BME280;31019;43.780;25.948;2023-04-30T13:29:10;100677.16;;;21.39;72.53
45275;BME280;31019;43.780;25.948;2023-04-30T13:31:37;100669.03;;;20.69;89.16
45275;BME280;31019;43.780;25.948;2023-04-30T13:34:03;100667.06;;;21.94;81.81
45275;BME280;31019;43.780;25.948;2023-04-30T13:36:31;100662.81;;;22.17;76.92
45275;BME280;31019;43.780;25.948;2023-04-30T13:38:59;100659.81;;;22.48;94.12
45275;BME280;31019;43.780;25.948;2023-04-30T13:41:26;100665.88;;;22.63;74.28
45275;BME280;31019;43.780;25.948;2023-04-30T13:43:53;100670.03;;;20.93;87.97
45275;BME280;31019;43.780;25.948;2023-04-30T13:46:20;100663.31;;;21.50;81.05
45275;BME280;31019;43.780;25.948;2023-04-30T13:48:47;100657.81;;;22.58;78.09
45275;BME280;31019;43.780;25.948;2023-04-30T13:51:16;100662.13;;;23.07;78.33
45275;BME280;31019;43.780;25.948;2023-04-30T13:53:43;100668.81;;;22.67;74.54
45275;BME280;31019;43.780;25.948;2023-04-30T13:56:11;100662.06;;;22.89;75.04
45275;BME280;31019;43.780;25.948;2023-04-30T13:58:39;100661.09;;;23.03;83.29
45275;BME280;31019;43.780;25.948;2023-04-30T14:01:06;100675.44;;;22.56;80.19
45275;BME280;31019;43.780;25.948;2023-04-30T14:03:33;100662.44;;;23.63;80.60
45275;BME280;31019;43.780;25.948;2023-04-30T14:06:00;100665.38;;;23.28;67.54
45275;BME280;31019;43.780;25.948;2023-04-30T14:08:27;100680.59;;;21.55;77.50
45275;BME280;31019;43.780;25.948;2023-04-30T14:10:55;100665.28;;;21.40;78.10
45275;BME280;31019;43.780;25.948;2023-04-30T14:13:23;100664.75;;;21.77;68.24
45275;BME280;31019;43.780;25.948;2023-04-30T14:15:50;100665.53;;;21.38;71.93
45275;BME280;31019;43.780;25.948;2023-04-30T14:18:17;100670.22;;;22.01;76.40
45275;BME280;31019;43.780;25.948;2023-04-30T14:20:47;100658.78;;;21.36;76.44
45275;BME280;31019;43.780;25.948;2023-04-30T14:23:14;100660.38;;;21.81;72.31
45275;BME280;31019;43.780;25.948;2023-04-30T14:25:41;100668.38;;;21.57;70.44
45275;BME280;31019;43.780;25.948;2023-04-30T14:28:08;100663.13;;;22.10;67.70
45275;BME280;31019;43.780;25.948;2023-04-30T14:30:37;100663.03;;;21.91;83.07
45275;BME280;31019;43.780;25.948;2023-04-30T14:33:04;100668.91;;;21.99;74.18
45275;BME280;31019;43.780;25.948;2023-04-30T14:35:31;100660.06;;;22.51;70.28
45275;BME280;31019;43.780;25.948;2023-04-30T14:37:58;100661.31;;;22.01;67.79
45275;BME280;31019;43.780;25.948;2023-04-30T14:40:35;100664.31;;;21.10;66.70
45275;BME280;31019;43.780;25.948;2023-04-30T14:43:34;100669.00;;;21.88;73.38
45275;BME280;31019;43.780;25.948;2023-04-30T14:46:36;100662.09;;;21.17;57.81
45275;BME280;31019;43.780;25.948;2023-04-30T14:49:32;100659.00;;;21.44;69.10
45275;BME280;31019;43.780;25.948;2023-04-30T14:52:57;100664.00;;;21.17;71.19
45275;BME280;31019;43.780;25.948;2023-04-30T14:55:27;100668.19;;;20.94;75.30
45275;BME280;31019;43.780;25.948;2023-04-30T14:58:14;100659.44;;;21.62;75.80
45275;BME280;31019;43.780;25.948;2023-04-30T15:00:57;100664.50;;;21.24;62.80
45275;BME280;31019;43.780;25.948;2023-04-30T15:04:08;100650.28;;;21.97;64.47
45275;BME280;31019;43.780;25.948;2023-04-30T15:10:32;100667.72;;;20.51;70.54
45275;BME280;31019;43.780;25.948;2023-04-30T15:13:32;100652.03;;;20.73;74.98
45275;BME280;31019;43.780;25.948;2023-04-30T15:16:25;100662.09;;;20.32;75.34
45275;BME280;31019;43.780;25.948;2023-04-30T15:28:54;100668.78;;;20.60;57.68
45275;BME280;31019;43.780;25.948;2023-04-30T15:31:38;100673.16;;;19.84;77.26
45275;BME280;31019;43.780;25.948;2023-04-30T15:35:03;100662.91;;;21.23;67.65
45275;BME280;31019;43.780;25.948;2023-04-30T15:37:44;100653.13;;;21.37;60.51
45275;BME280;31019;43.780;25.948;2023-04-30T15:40:25;100658.94;;;21.05;62.58
45275;BME280;31019;43.780;25.948;2023-04-30T15:43:14;100661.38;;;21.01;57.10
45275;BME280;31019;43.780;25.948;2023-04-30T15:52:42;100663.94;;;20.62;71.93
45275;BME280;31019;43.780;25.948;2023-04-30T15:55:48;100663.66;;;20.74;67.65
45275;BME280;31019;43.780;25.948;2023-04-30T15:58:55;100662.78;;;20.84;64.95
45275;BME280;31019;43.780;25.948;2023-04-30T16:08:28;100694.72;;;20.30;67.38
45275;BME280;31019;43.780;25.948;2023-04-30T16:11:30;100680.41;;;20.40;70.66
45275;BME280;31019;43.780;25.948;2023-04-30T16:14:23;100688.81;;;20.33;68.04
45275;BME280;31019;43.780;25.948;2023-04-30T16:17:14;100696.88;;;20.28;67.85
45275;BME280;31019;43.780;25.948;2023-04-30T16:20:03;100689.88;;;20.07;71.02
45275;BME280;31019;43.780;25.948;2023-04-30T16:23:03;100697.97;;;19.92;81.47
45275;BME280;31019;43.780;25.948;2023-04-30T16:25:49;100703.09;;;20.03;82.02
45275;BME280;31019;43.780;25.948;2023-04-30T16:28:29;100693.81;;;19.43;82.94
45275;BME280;31019;43.780;25.948;2023-04-30T16:31:24;100691.03;;;19.17;86.79
45275;BME280;31019;43.780;25.948;2023-04-30T16:34:08;100709.81;;;19.02;90.17
45275;BME280;31019;43.780;25.948;2023-04-30T16:37:02;100710.28;;;18.51;100.00
45275;BME280;31019;43.780;25.948;2023-04-30T16:39:49;100701.41;;;18.51;100.00
45275;BME280;31019;43.780;25.948;2023-04-30T16:42:36;100707.28;;;18.11;100.00
45275;BME280;31019;43.780;25.948;2023-04-30T16:45:15;100717.25;;;18.10;100.00
45275;BME280;31019;43.780;25.948;2023-04-30T16:47:58;100714.53;;;17.78;100.00
45275;BME280;31019;43.780;25.948;2023-04-30T16:50:43;100721.41;;;17.47;100.00
45275;BME280;31019;43.780;25.948;2023-04-30T16:53:27;100716.22;;;17.18;100.00
45275;BME280;31019;43.780;25.948;2023-04-30T16:56:16;100723.91;;;17.09;100.00
45275;BME280;31019;43.780;25.948;2023-04-30T17:02:05;100723.56;;;16.67;100.00
45275;BME280;31019;43.780;25.948;2023-04-30T17:04:40;100721.97;;;16.49;100.00
45275;BME280;31019;43.780;25.948;2023-04-30T17:07:15;100718.63;;;16.42;100.00
45275;BME280;31019;43.780;25.948;2023-04-30T17:10:08;100733.78;;;15.86;100.00
45275;BME280;31019;43.780;25.948;2023-04-30T17:12:53;100744.88;;;16.23;100.00
45275;BME280;31019;43.780;25.948;2023-04-30T17:15:39;100731.28;;;15.96;100.00
45275;BME280;31019;43.780;25.948;2023-04-30T17:27:57;100730.00;;;15.70;100.00
45275;BME280;31019;43.780;25.948;2023-04-30T17:30:55;100735.84;;;15.55;100.00
45275;BME280;31019;43.780;25.948;2023-04-30T17:33:41;100743.16;;;15.60;100.00
45275;BME280;31019;43.780;25.948;2023-04-30T17:36:25;100740.97;;;15.16;100.00
45275;BME280;31019;43.780;25.948;2023-04-30T17:39:00;100740.09;;;15.27;100.00
45275;BME280;31019;43.780;25.948;2023-04-30T17:41:41;100740.81;;;15.23;100.00
45275;BME280;31019;43.780;25.948;2023-04-30T17:54:24;100765.25;;;15.03;100.00
45275;BME280;31019;43.780;25.948;2023-04-30T17:57:45;100753.75;;;14.91;100.00
45275;BME280;31019;43.780;25.948;2023-04-30T18:00:43;100762.16;;;14.59;100.00
45275;BME280;31019;43.780;25.948;2023-04-30T18:03:47;100766.44;;;14.60;100.00
45275;BME280;31019;43.780;25.948;2023-04-30T18:06:40;100775.44;;;14.35;100.00
45275;BME280;31019;43.780;25.948;2023-04-30T18:09:49;100778.44;;;13.97;100.00
45275;BME280;31019;43.780;25.948;2023-04-30T18:15:42;100802.59;;;14.32;100.00
45275;BME280;31019;43.780;25.948;2023-04-30T18:18:37;100785.47;;;14.52;100.00
45275;BME280;31019;43.780;25.948;2023-04-30T18:21:25;100809.81;;;14.02;100.00
45275;BME280;31019;43.780;25.948;2023-04-30T18:24:19;100810.84;;;14.31;100.00